Time;durP1;ratioP1;P1;durP2;ratioP2;P2;SDS_P1;SDS_P2;PMS_P1;PMS_P2;Temp;Humidity;BMP_temperature;BMP_pressure;BME280_temperature;BME280_humidity;BME280_pressure;Samples;Min_cycle;Max_cycle;Signal;HPM_P1;HPM_P2
2021/09/13 00:00:02;;;;;;;;;;;;;;;;;;2113590;28;44185;-75
2021/09/13 00:01:04;;;;;;;;;;;;;;;;;;2113754;28;46629;-75
2021/09/13 00:02:06;;;;;;;;;;;;;;;;;;2113667;28;45437;-77
2021/09/13 00:03:08;;;;;;;;;;;;;;;;;;2113600;27;45792;-76
2021/09/13 00:04:09;;;;;;;;;;;;;;;;;;2105327;28;45549;-77
2021/09/13 00:05:10;;;;;;;;;;;;;;;;;;2115368;28;44076;-75
2021/09/13 00:06:12;;;;;;;;;;;;;;;;;;2106752;28;46412;-75
2021/09/13 00:07:13;;;;;;;;;;;;;;;;;;2107264;28;46761;-75
2021/09/13 00:08:15;;;;;;;;;;;;;;;;;;2114777;28;44660;-74
2021/09/13 00:09:16;;;;;;;;;;;;;;;;;;2106766;28;44788;-75
2021/09/13 00:10:18;;;;;;;;;;;;;;;;;;2106519;28;45952;-76
2021/09/13 00:11:20;;;;;;;;;;;;;;;;;;2106950;28;46310;-77
2021/09/13 00:12:23;;;;;;;;;;;;;;;;;;2115385;28;44323;-76
2021/09/13 00:13:25;;;;;;;;;;;;;;;;;;2107298;28;45741;-76
2021/09/13 00:14:27;;;;;;;;;;;;;;;;;;2114869;28;47338;-76
2021/09/13 00:15:28;;;;;;;;;;;;;;;;;;2115155;28;46440;-76
2021/09/13 00:16:29;;;;;;;;;;;;;;;;;;2106447;28;46955;-76
2021/09/13 00:17:31;;;;;;;;;;;;;;;;;;2114975;28;47119;-75
2021/09/13 00:18:32;;;;;;;;;;;;;;;;;;2115108;28;46093;-76
2021/09/13 00:19:34;;;;;;;;;;;;;;;;;;2106844;28;44989;-76
2021/09/13 00:20:35;;;;;;;;;;;;;;;;;;2114876;27;45964;-76
2021/09/13 00:21:37;;;;;;;;;;;;;;;;;;2115391;28;45902;-76
2021/09/13 00:22:38;;;;;;;;;;;;;;;;;;2115413;28;44165;-77
2021/09/13 00:23:40;;;;;;;;;;;;;;;;;;2114944;28;45907;-77
2021/09/13 00:24:41;;;;;;;;;;;;;;;;;;2106617;28;46044;-76
2021/09/13 00:25:43;;;;;;;;;;;;;;;;;;2106941;28;47035;-77
2021/09/13 00:26:44;;;;;;;;;;;;;;;;;;2115057;28;47167;-77
2021/09/13 00:27:45;;;;;;;;;;;;;;;;;;2114733;28;47168;-74
2021/09/13 00:28:47;;;;;;;;;;;;;;;;;;2106637;28;45855;-74
2021/09/13 00:29:48;;;;;;;;;;;;;;;;;;2115325;28;45815;-75
2021/09/13 00:30:50;;;;;;;;;;;;;;;;;;2106688;28;44958;-74
2021/09/13 00:31:51;;;;;;;;;;;;;;;;;;2115319;28;42063;-74
2021/09/13 00:32:53;;;;;;;;;;;;;;;;;;2114917;28;45544;-74
2021/09/13 00:33:54;;;;;;;;;;;;;;;;;;2106526;28;45259;-76
2021/09/13 00:34:56;;;;;;;;;;;;;;;;;;2106570;28;45579;-75
2021/09/13 00:35:57;;;;;;;;;;;;;;;;;;2114947;28;44230;-75
2021/09/13 00:36:59;;;;;;;;;;;;;;;;;;2114866;27;45247;-76
2021/09/13 00:38:00;;;;;;;;;;;;;;;;;;2106915;28;42397;-75
2021/09/13 00:39:02;;;;;;;;;;;;;;;;;;2115008;28;44095;-75
2021/09/13 00:40:03;;;;;;;;;;;;;;;;;;2115151;28;44221;-75
2021/09/13 00:41:05;;;;;;;;;;;;;;;;;;2106580;28;44392;-76
2021/09/13 00:42:06;;;;;;;;;;;;;;;;;;2115410;28;43620;-75
2021/09/13 00:43:08;;;;;;;;;;;;;;;;;;2115445;28;42670;-75
2021/09/13 00:44:09;;;;;;;;;;;;;;;;;;2106693;28;45178;-74
2021/09/13 00:45:11;;;;;;;;;;;;;;;;;;2115328;28;43467;-75
2021/09/13 00:46:12;;;;;;;;;;;;;;;;;;2114834;28;44010;-74
2021/09/13 00:47:17;;;;;;;;;;;;;;;;;;2107218;28;43227;-75
2021/09/13 00:48:19;;;;;;;;;;;;;;;;;;2107272;28;42313;-75
2021/09/13 00:49:22;;;;;;;;;;;;;;;;;;2114901;28;43627;-75
2021/09/13 00:50:24;;;;;;;;;;;;;;;;;;2115805;27;43582;-75
2021/09/13 00:51:25;;;;;;;;;;;;;;;;;;2115883;27;42777;-75
2021/09/13 00:52:27;;;;;;;;;;;;;;;;;;2115661;27;46578;-75
2021/09/13 00:53:31;;;;;;;;;;;;;;;;;;2115390;27;45424;-75
2021/09/13 00:54:33;;;;;;;;;;;;;;;;;;2114904;28;46817;-75
2021/09/13 00:55:34;;;;;;;;;;;;;;;;;;2106606;28;44002;-75
2021/09/13 00:56:36;;;;;;;;;;;;;;;;;;2106814;28;45392;-75
2021/09/13 00:57:38;;;;;;;;;;;;;;;;;;2115189;28;44058;-75
2021/09/13 00:58:39;;;;;;;;;;;;;;;;;;2106696;28;46617;-75
2021/09/13 00:59:41;;;;;;;;;;;;;;;;;;2115120;28;45225;-76
2021/09/13 01:00:42;;;;;;;;;;;;;;;;;;2115446;27;46842;-74
2021/09/13 01:01:44;;;;;;;;;;;;;;;;;;2115456;28;43494;-75
2021/09/13 01:02:45;;;;;;;;;;;;;;;;;;2106794;28;45440;-74
2021/09/13 01:03:47;;;;;;;;;;;;;;;;;;2114902;28;46652;-75
2021/09/13 01:04:48;;;;;;;;;;;;;;;;;;2114966;28;42858;-74
2021/09/13 01:05:50;;;;;;;;;;;;;;;;;;2114961;28;45303;-74
2021/09/13 01:06:52;;;;;;;;;;;;;;;;;;2106586;28;46117;-74
2021/09/13 01:07:54;;;;;;;;;;;;;;;;;;2114859;28;43690;-74
2021/09/13 01:08:55;;;;;;;;;;;;;;;;;;2114934;28;43373;-76
2021/09/13 01:09:57;;;;;;;;;;;;;;;;;;2106661;28;45375;-75
2021/09/13 01:10:59;;;;;;;;;;;;;;;;;;2114860;28;45667;-75
2021/09/13 01:12:01;;;;;;;;;;;;;;;;;;2114939;28;44112;-74
2021/09/13 01:13:03;;;;;;;;;;;;;;;;;;2106816;28;46585;-74
2021/09/13 01:14:04;;;;;;;;;;;;;;;;;;2106308;28;47136;-74
2021/09/13 01:15:06;;;;;;;;;;;;;;;;;;2105724;28;44510;-74
2021/09/13 01:16:07;;;;;;;;;;;;;;;;;;2115119;28;45723;-74
2021/09/13 01:17:09;;;;;;;;;;;;;;;;;;2106679;28;42414;-74
2021/09/13 01:18:10;;;;;;;;;;;;;;;;;;2115457;28;45882;-74
2021/09/13 01:19:11;;;;;;;;;;;;;;;;;;2115592;27;47147;-74
2021/09/13 01:20:13;;;;;;;;;;;;;;;;;;2115491;28;47309;-74
2021/09/13 01:21:14;;;;;;;;;;;;;;;;;;2107275;28;44525;-74
2021/09/13 01:22:17;;;;;;;;;;;;;;;;;;2107071;28;45817;-75
2021/09/13 01:23:26;;;;;;;;;;;;;;;;;;2115578;28;44517;-74
2021/09/13 01:24:28;;;;;;;;;;;;;;;;;;2115758;28;44242;-74
2021/09/13 01:25:29;;;;;;;;;;;;;;;;;;2116195;27;45763;-74
2021/09/13 01:26:31;;;;;;;;;;;;;;;;;;2116419;27;47322;-73
2021/09/13 01:27:32;;;;;;;;;;;;;;;;;;2115424;27;45333;-76
2021/09/13 01:28:34;;;;;;;;;;;;;;;;;;2107729;28;44556;-75
2021/09/13 01:29:36;;;;;;;;;;;;;;;;;;2115627;28;45985;-75
2021/09/13 01:30:37;;;;;;;;;;;;;;;;;;2115367;28;44749;-75
2021/09/13 01:31:39;;;;;;;;;;;;;;;;;;2114769;28;44619;-73
2021/09/13 01:32:40;;;;;;;;;;;;;;;;;;2115031;28;44089;-74
2021/09/13 01:33:42;;;;;;;;;;;;;;;;;;2114981;28;43879;-74
2021/09/13 01:34:43;;;;;;;;;;;;;;;;;;2106502;28;46992;-77
2021/09/13 01:35:45;;;;;;;;;;;;;;;;;;2114871;28;44901;-76
2021/09/13 01:36:46;;;;;;;;;;;;;;;;;;2106416;28;45445;-76
2021/09/13 01:37:48;;;;;;;;;;;;;;;;;;2114374;28;45904;-76
2021/09/13 01:38:49;;;;;;;;;;;;;;;;;;2110255;27;44492;-77
2021/09/13 01:39:51;;;;;;;;;;;;;;;;;;2106099;28;42891;-75
2021/09/13 01:40:53;;;;;;;;;;;;;;;;;;2106369;28;44210;-75
2021/09/13 01:41:54;;;;;;;;;;;;;;;;;;2106223;28;42486;-76
2021/09/13 01:42:59;;;;;;;;;;;;;;;;;;2097997;28;44149;-76
2021/09/13 01:44:00;;;;;;;;;;;;;;;;;;2105911;28;45673;-75
2021/09/13 01:45:02;;;;;;;;;;;;;;;;;;2106165;28;44542;-78
2021/09/13 01:46:04;;;;;;;;;;;;;;;;;;2098174;28;43738;-75
2021/09/13 01:47:05;;;;;;;;;;;;;;;;;;2106364;28;44032;-75
2021/09/13 01:48:07;;;;;;;;;;;;;;;;;;2106077;28;42729;-77
2021/09/13 01:49:09;;;;;;;;;;;;;;;;;;2106345;28;42357;-76
2021/09/13 01:50:10;;;;;;;;;;;;;;;;;;2106020;28;42734;-76
2021/09/13 01:51:12;;;;;;;;;;;;;;;;;;2106705;28;42486;-77
2021/09/13 01:52:13;;;;;;;;;;;;;;;;;;2114228;27;42927;-76
2021/09/13 01:53:15;;;;;;;;;;;;;;;;;;2106292;28;44572;-76
2021/09/13 01:54:16;;;;;;;;;;;;;;;;;;2105813;28;42953;-76
2021/09/13 01:55:17;;;;;;;;;;;;;;;;;;2106839;28;43952;-76
2021/09/13 01:56:19;;;;;;;;;;;;;;;;;;2106439;28;42293;-77
2021/09/13 01:57:20;;;;;;;;;;;;;;;;;;2098305;28;44091;-77
2021/09/13 01:58:25;;;;;;;;;;;;;;;;;;2098051;28;45753;-76
2021/09/13 01:59:27;;;;;;;;;;;;;;;;;;2106115;28;46516;-76
2021/09/13 02:00:28;;;;;;;;;;;;;;;;;;2105861;28;46585;-77
2021/09/13 02:01:29;;;;;;;;;;;;;;;;;;2106229;28;45281;-76
2021/09/13 02:02:31;;;;;;;;;;;;;;;;;;2106861;28;43219;-76
2021/09/13 02:03:33;;;;;;;;;;;;;;;;;;2106252;28;45237;-76
2021/09/13 02:04:34;;;;;;;;;;;;;;;;;;2105753;28;45409;-76
2021/09/13 02:05:36;;;;;;;;;;;;;;;;;;2106186;28;47106;-76
2021/09/13 02:06:37;;;;;;;;;;;;;;;;;;2097534;28;43444;-76
2021/09/13 02:07:39;;;;;;;;;;;;;;;;;;2105443;28;45620;-76
2021/09/13 02:08:40;;;;;;;;;;;;;;;;;;2105584;28;45751;-76
2021/09/13 02:09:42;;;;;;;;;;;;;;;;;;2105667;28;45647;-76
2021/09/13 02:10:43;;;;;;;;;;;;;;;;;;2097456;28;43977;-76
2021/09/13 02:11:45;;;;;;;;;;;;;;;;;;2097845;28;45630;-76
2021/09/13 02:12:46;;;;;;;;;;;;;;;;;;2106075;28;44192;-77
2021/09/13 02:13:48;;;;;;;;;;;;;;;;;;2097937;28;43936;-76
2021/09/13 02:14:52;;;;;;;;;;;;;;;;;;2097353;28;44185;-76
2021/09/13 02:15:53;;;;;;;;;;;;;;;;;;2098268;28;44209;-77
2021/09/13 02:16:55;;;;;;;;;;;;;;;;;;2097956;28;45501;-76
2021/09/13 02:17:56;;;;;;;;;;;;;;;;;;2097743;28;46577;-75
2021/09/13 02:18:58;;;;;;;;;;;;;;;;;;2097788;28;46839;-75
2021/09/13 02:19:59;;;;;;;;;;;;;;;;;;2105939;28;47314;-76
2021/09/13 02:21:00;;;;;;;;;;;;;;;;;;2106524;28;47076;-76
2021/09/13 02:22:02;;;;;;;;;;;;;;;;;;2105878;28;45893;-76
2021/09/13 02:23:03;;;;;;;;;;;;;;;;;;2106037;28;44132;-75
2021/09/13 02:24:05;;;;;;;;;;;;;;;;;;2105765;28;47283;-76
2021/09/13 02:25:07;;;;;;;;;;;;;;;;;;2097680;28;44628;-76
2021/09/13 02:26:08;;;;;;;;;;;;;;;;;;2105772;28;47405;-75
2021/09/13 02:27:10;;;;;;;;;;;;;;;;;;2105104;28;46218;-75
2021/09/13 02:28:11;;;;;;;;;;;;;;;;;;2105780;28;46024;-76
2021/09/13 02:29:12;;;;;;;;;;;;;;;;;;2114138;28;45700;-76
2021/09/13 02:30:14;;;;;;;;;;;;;;;;;;2105874;28;47224;-75
2021/09/13 02:31:15;;;;;;;;;;;;;;;;;;2097746;28;45696;-75
2021/09/13 02:32:17;;;;;;;;;;;;;;;;;;2097307;28;45727;-75
2021/09/13 02:33:18;;;;;;;;;;;;;;;;;;2106098;28;46690;-75
2021/09/13 02:34:20;;;;;;;;;;;;;;;;;;2113650;27;48279;-75
2021/09/13 02:35:21;;;;;;;;;;;;;;;;;;2106520;28;46157;-75
2021/09/13 02:36:23;;;;;;;;;;;;;;;;;;2105797;28;46600;-76
2021/09/13 02:37:24;;;;;;;;;;;;;;;;;;2097515;28;45747;-75
2021/09/13 02:38:26;;;;;;;;;;;;;;;;;;2099116;28;44839;-75
2021/09/13 02:39:27;;;;;;;;;;;;;;;;;;2114213;28;45884;-75
2021/09/13 02:40:29;;;;;;;;;;;;;;;;;;2114204;28;47037;-75
2021/09/13 02:41:30;;;;;;;;;;;;;;;;;;2114627;28;46981;-74
2021/09/13 02:42:32;;;;;;;;;;;;;;;;;;2114771;27;45699;-75
2021/09/13 02:43:34;;;;;;;;;;;;;;;;;;2114299;28;44406;-76
2021/09/13 02:44:35;;;;;;;;;;;;;;;;;;2105505;28;44548;-75
2021/09/13 02:45:37;;;;;;;;;;;;;;;;;;2105944;28;41830;-74
2021/09/13 02:46:38;;;;;;;;;;;;;;;;;;2114137;28;44223;-74
2021/09/13 02:47:40;;;;;;;;;;;;;;;;;;2114993;27;42655;-74
2021/09/13 02:48:41;;;;;;;;;;;;;;;;;;2114209;28;44229;-75
2021/09/13 02:49:43;;;;;;;;;;;;;;;;;;2114165;28;46024;-74
2021/09/13 02:50:47;;;;;;;;;;;;;;;;;;2114001;27;44100;-75
2021/09/13 02:51:49;;;;;;;;;;;;;;;;;;2114130;28;44277;-75
2021/09/13 02:52:50;;;;;;;;;;;;;;;;;;2114613;28;42519;-74
2021/09/13 02:53:51;;;;;;;;;;;;;;;;;;2105531;28;44101;-74
2021/09/13 02:54:53;;;;;;;;;;;;;;;;;;2114157;28;44217;-75
2021/09/13 02:55:54;;;;;;;;;;;;;;;;;;2105793;28;44450;-75
2021/09/13 02:56:56;;;;;;;;;;;;;;;;;;2105672;28;45186;-75
2021/09/13 02:57:57;;;;;;;;;;;;;;;;;;2105720;28;45415;-75
2021/09/13 02:58:59;;;;;;;;;;;;;;;;;;2105619;28;44082;-76
2021/09/13 03:00:00;;;;;;;;;;;;;;;;;;2114519;28;43478;-75
2021/09/13 03:01:02;;;;;;;;;;;;;;;;;;2106025;28;42798;-75
2021/09/13 03:02:03;;;;;;;;;;;;;;;;;;2105836;28;45439;-75
2021/09/13 03:03:05;;;;;;;;;;;;;;;;;;2114433;28;44495;-75
2021/09/13 03:04:07;;;;;;;;;;;;;;;;;;2114144;28;46168;-76
2021/09/13 03:05:09;;;;;;;;;;;;;;;;;;2113953;28;46609;-75
2021/09/13 03:06:10;;;;;;;;;;;;;;;;;;2105779;28;46748;-75
2021/09/13 03:07:12;;;;;;;;;;;;;;;;;;2114132;28;45433;-76
2021/09/13 03:08:14;;;;;;;;;;;;;;;;;;2114462;28;45662;-75
2021/09/13 03:09:15;;;;;;;;;;;;;;;;;;2114685;27;44574;-76
2021/09/13 03:10:17;;;;;;;;;;;;;;;;;;2114730;27;46836;-75
2021/09/13 03:11:18;;;;;;;;;;;;;;;;;;2114245;28;43802;-75
2021/09/13 03:12:19;;;;;;;;;;;;;;;;;;2114178;28;45370;-76
2021/09/13 03:13:21;;;;;;;;;;;;;;;;;;2114144;28;46549;-75
2021/09/13 03:14:22;;;;;;;;;;;;;;;;;;2105760;28;44355;-75
2021/09/13 03:15:24;;;;;;;;;;;;;;;;;;2105685;28;44636;-76
2021/09/13 03:16:25;;;;;;;;;;;;;;;;;;2114105;28;46520;-77
2021/09/13 03:17:26;;;;;;;;;;;;;;;;;;2106082;28;43613;-76
2021/09/13 03:18:28;;;;;;;;;;;;;;;;;;2106010;28;44450;-76
2021/09/13 03:19:29;;;;;;;;;;;;;;;;;;2106186;28;46718;-75
2021/09/13 03:20:31;;;;;;;;;;;;;;;;;;2114894;28;46559;-75
2021/09/13 03:21:32;;;;;;;;;;;;;;;;;;2114384;28;45271;-75
2021/09/13 03:22:34;;;;;;;;;;;;;;;;;;2106741;28;46738;-75
2021/09/13 03:23:35;;;;;;;;;;;;;;;;;;2114443;28;45793;-74
2021/09/13 03:24:36;;;;;;;;;;;;;;;;;;2115158;28;45525;-74
2021/09/13 03:25:38;;;;;;;;;;;;;;;;;;2107103;28;44598;-75
2021/09/13 03:26:39;;;;;;;;;;;;;;;;;;2115280;28;44485;-74
2021/09/13 03:27:41;;;;;;;;;;;;;;;;;;2106309;28;46163;-73
2021/09/13 03:28:42;;;;;;;;;;;;;;;;;;2106601;28;44372;-74
2021/09/13 03:29:43;;;;;;;;;;;;;;;;;;2106558;28;47312;-74
2021/09/13 03:30:45;;;;;;;;;;;;;;;;;;2106575;28;46236;-74
2021/09/13 03:31:46;;;;;;;;;;;;;;;;;;2106648;28;47294;-75
2021/09/13 03:32:48;;;;;;;;;;;;;;;;;;2107054;28;46105;-74
2021/09/13 03:33:49;;;;;;;;;;;;;;;;;;2115320;28;44431;-75
2021/09/13 03:34:50;;;;;;;;;;;;;;;;;;2106769;28;46085;-76
2021/09/13 03:35:52;;;;;;;;;;;;;;;;;;2115850;28;47015;-76
2021/09/13 03:36:54;;;;;;;;;;;;;;;;;;2115209;28;47086;-75
2021/09/13 03:37:55;;;;;;;;;;;;;;;;;;2107585;28;44061;-75
2021/09/13 03:38:57;;;;;;;;;;;;;;;;;;2106919;28;46902;-75
2021/09/13 03:39:58;;;;;;;;;;;;;;;;;;2107563;28;46023;-75
2021/09/13 03:41:00;;;;;;;;;;;;;;;;;;2115431;28;45505;-75
2021/09/13 03:42:01;;;;;;;;;;;;;;;;;;2115897;28;45192;-75
2021/09/13 03:43:03;;;;;;;;;;;;;;;;;;2116002;28;46956;-76
2021/09/13 03:44:04;;;;;;;;;;;;;;;;;;2115857;28;46182;-76
2021/09/13 03:45:06;;;;;;;;;;;;;;;;;;2115746;28;46509;-75
2021/09/13 03:46:07;;;;;;;;;;;;;;;;;;2114894;28;47007;-75
2021/09/13 03:47:09;;;;;;;;;;;;;;;;;;2107067;28;46050;-75
2021/09/13 03:48:10;;;;;;;;;;;;;;;;;;2106036;28;42680;-75
2021/09/13 03:49:12;;;;;;;;;;;;;;;;;;2114615;28;45517;-74
2021/09/13 03:50:13;;;;;;;;;;;;;;;;;;2115331;27;44875;-74
2021/09/13 03:51:15;;;;;;;;;;;;;;;;;;2115246;27;44322;-74
2021/09/13 03:52:16;;;;;;;;;;;;;;;;;;2114782;28;43139;-75
2021/09/13 03:53:18;;;;;;;;;;;;;;;;;;2105850;28;45341;-73
2021/09/13 03:54:19;;;;;;;;;;;;;;;;;;2114586;28;44111;-74
2021/09/13 03:55:20;;;;;;;;;;;;;;;;;;2114189;28;45466;-74
2021/09/13 03:56:22;;;;;;;;;;;;;;;;;;2114728;28;45230;-74
2021/09/13 03:57:23;;;;;;;;;;;;;;;;;;2115070;28;45748;-74
2021/09/13 03:58:25;;;;;;;;;;;;;;;;;;2114887;27;42796;-74
2021/09/13 03:59:26;;;;;;;;;;;;;;;;;;2115119;27;42673;-74
2021/09/13 04:00:27;;;;;;;;;;;;;;;;;;2114657;28;44249;-74
2021/09/13 04:01:30;;;;;;;;;;;;;;;;;;2106398;28;43289;-75
2021/09/13 04:02:31;;;;;;;;;;;;;;;;;;2106406;28;43769;-74
2021/09/13 04:03:43;;;;;;;;;;;;;;;;;;2105780;28;42716;-75
2021/09/13 04:04:48;;;;;;;;;;;;;;;;;;2114381;28;44090;-74
2021/09/13 04:05:53;;;;;;;;;;;;;;;;;;2113775;28;44716;-74
2021/09/13 04:07:39;;;;;;;;;;;;;;;;;;2106384;28;44051;-76
2021/09/13 04:11:55;;;;;;;;;;;;;;;;;;2115179;28;45485;-76
2021/09/13 04:12:56;;;;;;;;;;;;;;;;;;2114978;27;46858;-74
2021/09/13 04:13:58;;;;;;;;;;;;;;;;;;2114325;27;45398;-75
2021/09/13 04:14:59;;;;;;;;;;;;;;;;;;2115534;28;43778;-75
2021/09/13 04:16:00;;;;;;;;;;;;;;;;;;2115041;27;46663;-75
2021/09/13 04:17:02;;;;;;;;;;;;;;;;;;2115410;28;44118;-74
2021/09/13 04:18:04;;;;;;;;;;;;;;;;;;2115321;28;45544;-75
2021/09/13 04:19:06;;;;;;;;;;;;;;;;;;2115346;28;45386;-75
2021/09/13 04:20:08;;;;;;;;;;;;;;;;;;2114512;28;43832;-74
2021/09/13 04:21:10;;;;;;;;;;;;;;;;;;2115241;28;42729;-74
2021/09/13 04:22:11;;;;;;;;;;;;;;;;;;2107071;28;44307;-76
2021/09/13 04:23:13;;;;;;;;;;;;;;;;;;2115230;28;45828;-76
2021/09/13 04:24:14;;;;;;;;;;;;;;;;;;2115247;27;45282;-76
2021/09/13 04:25:15;;;;;;;;;;;;;;;;;;2114864;28;44218;-76
2021/09/13 04:26:17;;;;;;;;;;;;;;;;;;2106733;28;45418;-77
2021/09/13 04:27:18;;;;;;;;;;;;;;;;;;2115698;28;45902;-76
2021/09/13 04:28:20;;;;;;;;;;;;;;;;;;2107874;28;45719;-77
2021/09/13 04:29:21;;;;;;;;;;;;;;;;;;2115807;28;46522;-77
2021/09/13 04:30:25;;;;;;;;;;;;;;;;;;2115791;28;45394;-77
2021/09/13 04:31:27;;;;;;;;;;;;;;;;;;2116239;28;46478;-75
2021/09/13 04:32:28;;;;;;;;;;;;;;;;;;2115404;28;44325;-75
2021/09/13 04:33:30;;;;;;;;;;;;;;;;;;2107027;28;47096;-76
2021/09/13 04:34:31;;;;;;;;;;;;;;;;;;2106531;28;45001;-76
2021/09/13 04:35:32;;;;;;;;;;;;;;;;;;2106988;28;46114;-76
2021/09/13 04:36:34;;;;;;;;;;;;;;;;;;2114888;28;45890;-75
2021/09/13 04:37:35;;;;;;;;;;;;;;;;;;2115044;28;44973;-75
2021/09/13 04:38:37;;;;;;;;;;;;;;;;;;2106946;28;44512;-77
2021/09/13 04:39:38;;;;;;;;;;;;;;;;;;2105959;28;46949;-75
2021/09/13 04:40:40;;;;;;;;;;;;;;;;;;2105434;28;46912;-75
2021/09/13 04:41:41;;;;;;;;;;;;;;;;;;2105460;28;46138;-75
2021/09/13 04:42:43;;;;;;;;;;;;;;;;;;2104998;28;46375;-75
2021/09/13 04:43:44;;;;;;;;;;;;;;;;;;2097071;28;45948;-75
2021/09/13 04:44:46;;;;;;;;;;;;;;;;;;2097024;28;46115;-76
2021/09/13 04:45:47;;;;;;;;;;;;;;;;;;2097243;28;46887;-75
2021/09/13 04:46:49;;;;;;;;;;;;;;;;;;2105522;28;47195;-76
2021/09/13 04:47:50;;;;;;;;;;;;;;;;;;2105077;28;46218;-76
2021/09/13 04:48:52;;;;;;;;;;;;;;;;;;2096843;28;46649;-76
2021/09/13 04:49:53;;;;;;;;;;;;;;;;;;2096829;28;45672;-77
2021/09/13 04:50:55;;;;;;;;;;;;;;;;;;2098725;28;44314;-75
2021/09/13 04:51:56;;;;;;;;;;;;;;;;;;2098347;28;44476;-75
2021/09/13 04:52:57;;;;;;;;;;;;;;;;;;2098371;28;44402;-76
2021/09/13 04:54:00;;;;;;;;;;;;;;;;;;2106944;28;46057;-75
2021/09/13 04:55:01;;;;;;;;;;;;;;;;;;2106831;28;42775;-75
2021/09/13 04:56:04;;;;;;;;;;;;;;;;;;2106531;28;44337;-75
2021/09/13 04:57:06;;;;;;;;;;;;;;;;;;2106868;28;44410;-75
2021/09/13 04:58:07;;;;;;;;;;;;;;;;;;2098105;28;43258;-75
2021/09/13 04:59:10;;;;;;;;;;;;;;;;;;2106511;28;45346;-75
2021/09/13 05:00:12;;;;;;;;;;;;;;;;;;2106344;28;44480;-75
2021/09/13 05:01:13;;;;;;;;;;;;;;;;;;2098421;28;44306;-75
2021/09/13 05:02:15;;;;;;;;;;;;;;;;;;2106196;28;42915;-74
2021/09/13 05:03:17;;;;;;;;;;;;;;;;;;2107212;28;44241;-75
2021/09/13 05:04:18;;;;;;;;;;;;;;;;;;2107136;28;41959;-74
2021/09/13 05:05:20;;;;;;;;;;;;;;;;;;2106386;28;45177;-75
2021/09/13 05:06:21;;;;;;;;;;;;;;;;;;2106353;28;44090;-75
2021/09/13 05:07:23;;;;;;;;;;;;;;;;;;2107171;28;44412;-74
2021/09/13 05:08:24;;;;;;;;;;;;;;;;;;2108381;28;44245;-76
2021/09/13 05:09:26;;;;;;;;;;;;;;;;;;2115622;27;45599;-75
2021/09/13 05:10:27;;;;;;;;;;;;;;;;;;2114716;28;45857;-74
2021/09/13 05:11:29;;;;;;;;;;;;;;;;;;2106668;28;44184;-76
2021/09/13 05:12:31;;;;;;;;;;;;;;;;;;2114747;28;44337;-76
2021/09/13 05:13:32;;;;;;;;;;;;;;;;;;2115490;27;45351;-77
2021/09/13 05:14:33;;;;;;;;;;;;;;;;;;2114704;28;43233;-77
2021/09/13 05:15:35;;;;;;;;;;;;;;;;;;2107066;28;41325;-76
2021/09/13 05:16:37;;;;;;;;;;;;;;;;;;2115045;28;43936;-76
2021/09/13 05:17:38;;;;;;;;;;;;;;;;;;2106629;28;45477;-76
2021/09/13 05:18:39;;;;;;;;;;;;;;;;;;2106520;28;46619;-77
2021/09/13 05:19:41;;;;;;;;;;;;;;;;;;2106437;28;45379;-76
2021/09/13 05:20:42;;;;;;;;;;;;;;;;;;2106312;28;46625;-76
2021/09/13 05:21:44;;;;;;;;;;;;;;;;;;2114994;28;45602;-76
2021/09/13 05:22:45;;;;;;;;;;;;;;;;;;2106818;28;44998;-76
2021/09/13 05:23:46;;;;;;;;;;;;;;;;;;2114744;28;44130;-76
2021/09/13 05:24:48;;;;;;;;;;;;;;;;;;2114737;28;46645;-77
2021/09/13 05:25:49;;;;;;;;;;;;;;;;;;2114954;28;45295;-76
2021/09/13 05:26:51;;;;;;;;;;;;;;;;;;2114580;27;45165;-76
2021/09/13 05:27:52;;;;;;;;;;;;;;;;;;2114722;28;45918;-76
2021/09/13 05:28:54;;;;;;;;;;;;;;;;;;2115154;28;45797;-77
2021/09/13 05:29:58;;;;;;;;;;;;;;;;;;2115070;28;45526;-76
2021/09/13 05:31:00;;;;;;;;;;;;;;;;;;2114568;28;46326;-76
2021/09/13 05:32:01;;;;;;;;;;;;;;;;;;2114818;28;47106;-76
2021/09/13 05:33:04;;;;;;;;;;;;;;;;;;2114601;27;44436;-76
2021/09/13 05:34:05;;;;;;;;;;;;;;;;;;2106628;28;42903;-75
2021/09/13 05:35:07;;;;;;;;;;;;;;;;;;2106369;28;45376;-76
2021/09/13 05:36:08;;;;;;;;;;;;;;;;;;2115095;28;43822;-75
2021/09/13 05:37:10;;;;;;;;;;;;;;;;;;2115237;28;44696;-75
2021/09/13 05:38:11;;;;;;;;;;;;;;;;;;2114524;28;45865;-75
2021/09/13 05:39:13;;;;;;;;;;;;;;;;;;2106133;28;46925;-74
2021/09/13 05:40:15;;;;;;;;;;;;;;;;;;2098019;28;47378;-75
2021/09/13 05:41:16;;;;;;;;;;;;;;;;;;2098046;28;44693;-74
2021/09/13 05:42:18;;;;;;;;;;;;;;;;;;2106046;28;43993;-74
2021/09/13 05:43:19;;;;;;;;;;;;;;;;;;2106759;28;47356;-74
2021/09/13 05:44:20;;;;;;;;;;;;;;;;;;2106379;28;42684;-75
2021/09/13 05:45:22;;;;;;;;;;;;;;;;;;2097800;28;47122;-74
2021/09/13 05:46:23;;;;;;;;;;;;;;;;;;2106333;28;46374;-73
2021/09/13 05:47:25;;;;;;;;;;;;;;;;;;2106160;28;47485;-75
2021/09/13 05:48:26;;;;;;;;;;;;;;;;;;2106073;28;47659;-75
2021/09/13 05:49:28;;;;;;;;;;;;;;;;;;2106482;28;44524;-74
2021/09/13 05:50:30;;;;;;;;;;;;;;;;;;2106221;28;45907;-74
2021/09/13 05:51:31;;;;;;;;;;;;;;;;;;2097863;28;45916;-74
2021/09/13 05:52:33;;;;;;;;;;;;;;;;;;2106312;28;47319;-73
2021/09/13 05:53:34;;;;;;;;;;;;;;;;;;2106208;28;47233;-73
2021/09/13 05:54:35;;;;;;;;;;;;;;;;;;2097749;28;47048;-74
2021/09/13 05:55:42;;;;;;;;;;;;;;;;;;2105969;28;47118;-73
2021/09/13 05:56:49;;;;;;;;;;;;;;;;;;2106364;28;43701;-73
2021/09/13 05:57:51;;;;;;;;;;;;;;;;;;2098238;28;45966;-74
2021/09/13 05:58:52;;;;;;;;;;;;;;;;;;2106271;28;42817;-71
2021/09/13 05:59:54;;;;;;;;;;;;;;;;;;2098193;28;43851;-74
2021/09/13 06:00:55;;;;;;;;;;;;;;;;;;2097902;28;43030;-74
2021/09/13 06:01:57;;;;;;;;;;;;;;;;;;2097776;28;45481;-74
2021/09/13 06:02:58;;;;;;;;;;;;;;;;;;2097940;28;45257;-74
2021/09/13 06:04:00;;;;;;;;;;;;;;;;;;2105732;28;45609;-73
2021/09/13 06:05:02;;;;;;;;;;;;;;;;;;2098279;28;41814;-74
2021/09/13 06:06:03;;;;;;;;;;;;;;;;;;2097643;28;45469;-74
2021/09/13 06:07:05;;;;;;;;;;;;;;;;;;2097860;28;43572;-75
2021/09/13 06:08:06;;;;;;;;;;;;;;;;;;2105859;28;44500;-76
2021/09/13 06:09:09;;;;;;;;;;;;;;;;;;2113794;28;44720;-75
2021/09/13 06:10:10;;;;;;;;;;;;;;;;;;2106029;28;45683;-75
2021/09/13 06:11:11;;;;;;;;;;;;;;;;;;2098012;28;42108;-75
2021/09/13 06:12:14;;;;;;;;;;;;;;;;;;2105916;28;44274;-76
2021/09/13 06:13:15;;;;;;;;;;;;;;;;;;2106254;28;43741;-75
2021/09/13 06:14:17;;;;;;;;;;;;;;;;;;2105695;28;45385;-75
2021/09/13 06:15:19;;;;;;;;;;;;;;;;;;2105962;28;44118;-74
2021/09/13 06:16:21;;;;;;;;;;;;;;;;;;2106341;28;42863;-76
2021/09/13 06:17:22;;;;;;;;;;;;;;;;;;2106125;28;45459;-73
2021/09/13 06:18:24;;;;;;;;;;;;;;;;;;2106843;28;42464;-74
2021/09/13 06:19:26;;;;;;;;;;;;;;;;;;2107296;28;42965;-75
2021/09/13 06:20:27;;;;;;;;;;;;;;;;;;2115316;28;42852;-74
2021/09/13 06:21:29;;;;;;;;;;;;;;;;;;2115614;27;43126;-75
2021/09/13 06:22:31;;;;;;;;;;;;;;;;;;2114871;28;43710;-74
2021/09/13 06:23:32;;;;;;;;;;;;;;;;;;2114587;28;45949;-74
2021/09/13 06:24:34;;;;;;;;;;;;;;;;;;2114475;28;45631;-75
2021/09/13 06:25:35;;;;;;;;;;;;;;;;;;2114653;28;45228;-75
2021/09/13 06:26:36;;;;;;;;;;;;;;;;;;2114483;28;45342;-75
2021/09/13 06:27:38;;;;;;;;;;;;;;;;;;2114098;28;46658;-75
2021/09/13 06:28:39;;;;;;;;;;;;;;;;;;2114485;28;45593;-76
2021/09/13 06:29:41;;;;;;;;;;;;;;;;;;2114572;28;45385;-75
2021/09/13 06:30:43;;;;;;;;;;;;;;;;;;2114511;28;43326;-75
2021/09/13 06:31:46;;;;;;;;;;;;;;;;;;2115010;28;45296;-74
2021/09/13 06:32:47;;;;;;;;;;;;;;;;;;2114550;28;46471;-74
2021/09/13 06:33:49;;;;;;;;;;;;;;;;;;2114034;28;45658;-75
2021/09/13 06:34:50;;;;;;;;;;;;;;;;;;2114391;28;45719;-74
2021/09/13 06:35:51;;;;;;;;;;;;;;;;;;2114364;28;45281;-74
2021/09/13 06:36:53;;;;;;;;;;;;;;;;;;2114436;28;45476;-75
2021/09/13 06:37:54;;;;;;;;;;;;;;;;;;2113961;28;46666;-74
2021/09/13 06:38:56;;;;;;;;;;;;;;;;;;2114320;28;46735;-77
2021/09/13 06:39:58;;;;;;;;;;;;;;;;;;2114209;28;46964;-77
2021/09/13 06:41:00;;;;;;;;;;;;;;;;;;2115349;27;43802;-77
2021/09/13 06:42:01;;;;;;;;;;;;;;;;;;2114172;28;44315;-77
2021/09/13 06:43:02;;;;;;;;;;;;;;;;;;2106577;28;45571;-76
2021/09/13 06:44:04;;;;;;;;;;;;;;;;;;2114045;28;46107;-73
2021/09/13 06:45:11;;;;;;;;;;;;;;;;;;2106042;28;46985;-73
2021/09/13 06:46:19;;;;;;;;;;;;;;;;;;2106490;28;47009;-73
2021/09/13 06:48:07;;;;;;;;;;;;;;;;;;2114420;28;46064;-72
2021/09/13 06:48:43;;;;;;;;;;;;;;;;;;2110763;27;46094;-73
2021/09/13 06:49:45;;;;;;;;;;;;;;;;;;2114656;27;45880;-73
2021/09/13 06:50:46;;;;;;;;;;;;;;;;;;2114263;28;44937;-72
2021/09/13 06:51:48;;;;;;;;;;;;;;;;;;2105973;28;45257;-74
2021/09/13 06:52:51;;;;;;;;;;;;;;;;;;2114194;28;44557;-73
2021/09/13 06:53:52;;;;;;;;;;;;;;;;;;2106163;28;45118;-73
2021/09/13 06:54:53;;;;;;;;;;;;;;;;;;2105871;28;47717;-73
2021/09/13 06:55:55;;;;;;;;;;;;;;;;;;2105794;28;44788;-73
2021/09/13 06:56:57;;;;;;;;;;;;;;;;;;2114451;28;45390;-72
2021/09/13 06:57:58;;;;;;;;;;;;;;;;;;2114131;28;44909;-73
2021/09/13 06:59:00;;;;;;;;;;;;;;;;;;2114050;28;48344;-71
2021/09/13 07:00:06;;;;;;;;;;;;;;;;;;2114912;27;46118;-73
2021/09/13 07:01:07;;;;;;;;;;;;;;;;;;2114831;27;46338;-73
2021/09/13 07:02:09;;;;;;;;;;;;;;;;;;2114168;28;45080;-74
2021/09/13 07:03:14;;;;;;;;;;;;;;;;;;2113994;28;46062;-73
2021/09/13 07:04:16;;;;;;;;;;;;;;;;;;2114480;27;46778;-76
2021/09/13 07:05:17;;;;;;;;;;;;;;;;;;2114137;28;44992;-73